Time;durP1;ratioP1;P1;durP2;ratioP2;P2;SDS_P1;SDS_P2;PMS_P1;PMS_P2;Temp;Humidity;BMP_temperature;BMP_pressure;BME280_temperature;BME280_humidity;BME280_pressure;Samples;Min_cycle;Max_cycle;Signal;HPM_P1;HPM_P2
2021/12/30 00:02:05;;;;;;;1.10;1.10;;;;;;;2.66;74.29;99925.71;101074;1319;94705;-77
2021/12/30 00:04:33;;;;;;;1.20;1.20;;;;;;;2.66;74.22;99925.89;100844;1319;139323;-77
2021/12/30 00:07:01;;;;;;;1.10;1.10;;;;;;;2.67;74.09;99925.55;100991;1319;107540;-76
2021/12/30 00:09:28;;;;;;;1.10;1.10;;;;;;;2.69;74.15;99927.11;100896;1319;140034;-78
2021/12/30 00:11:56;;;;;;;1.10;1.10;;;;;;;2.72;74.32;99923.78;101136;1316;94775;-78
2021/12/30 00:14:40;;;;;;;1.20;1.20;;;;;;;2.72;73.93;99927.63;101027;1316;107855;-77
2021/12/30 00:17:08;;;;;;;1.20;1.20;;;;;;;2.72;74.27;99939.38;100893;1316;140281;-77
2021/12/30 00:19:35;;;;;;;1.10;1.10;;;;;;;2.74;74.13;99939.91;100970;1312;94730;-77
2021/12/30 00:22:03;;;;;;;1.10;1.10;;;;;;;2.71;74.04;99940.08;100793;1316;138167;-77
2021/12/30 00:24:31;;;;;;;1.00;1.00;;;;;;;2.67;74.20;99940.09;100868;1319;109064;-77
2021/12/30 00:26:59;;;;;;;1.00;1.00;;;;;;;2.65;74.42;99940.61;100934;1316;107482;-77
2021/12/30 00:29:27;;;;;;;1.10;1.10;;;;;;;2.69;74.63;99943.95;100995;1316;140169;-77
2021/12/30 00:31:55;;;;;;;1.00;1.00;;;;;;;2.73;74.63;99941.14;101003;1316;94303;-77
2021/12/30 00:34:23;;;;;;;1.00;1.00;;;;;;;2.78;74.70;99940.59;100910;1316;139641;-77
2021/12/30 00:36:50;;;;;;;1.10;1.10;;;;;;;2.80;74.25;99936.72;100921;1316;107423;-78
2021/12/30 00:39:18;;;;;;;1.00;1.00;;;;;;;2.84;74.70;99931.98;100797;1315;138684;-78
2021/12/30 00:41:46;;;;;;;1.00;1.00;;;;;;;2.95;74.19;99931.09;100990;1316;94293;-78
2021/12/30 00:44:14;;;;;;;1.10;1.10;;;;;;;2.99;74.12;99927.75;101064;1316;107707;-77
2021/12/30 00:46:41;;;;;;;1.00;1.00;;;;;;;3.02;74.00;99934.56;100577;1316;138429;-77
2021/12/30 00:49:09;;;;;;;1.10;1.10;;;;;;;3.09;73.82;99943.14;100531;1315;94213;-77
2021/12/30 00:51:41;;;;;;;1.00;1.00;;;;;;;3.14;73.45;99940.68;100472;1316;139608;-77
2021/12/30 00:54:09;;;;;;;1.00;1.00;;;;;;;3.07;73.42;99939.83;100633;1319;109303;-77
2021/12/30 00:56:36;;;;;;;1.10;1.10;;;;;;;2.98;73.59;99937.57;100887;1316;107811;-77
2021/12/30 00:59:04;;;;;;;1.00;1.00;;;;;;;2.94;73.77;99932.14;100790;1316;140171;-77
2021/12/30 01:01:32;;;;;;;1.20;1.20;;;;;;;2.96;73.98;99926.17;100973;1315;94311;-77
2021/12/30 01:04:00;;;;;;;1.00;1.00;;;;;;;2.97;73.89;99920.39;100904;1319;138970;-77
2021/12/30 01:06:29;;;;;;;1.10;1.10;;;;;;;2.92;73.82;99916.89;100950;1319;107483;-77
2021/12/30 01:08:57;;;;;;;1.10;1.10;;;;;;;2.91;74.04;99914.61;100992;1316;94283;-77
2021/12/30 01:11:25;;;;;;;1.10;1.10;;;;;;;2.90;74.03;99914.79;100905;1318;139137;-77
2021/12/30 01:14:01;;;;;;;1.00;1.00;;;;;;;2.91;74.36;99914.61;101087;1316;109129;-78
2021/12/30 01:16:35;;;;;;;1.10;1.10;;;;;;;2.87;74.33;99914.45;100884;1316;138785;-78
2021/12/30 01:21:33;;;;;;;1.00;1.00;;;;;;;2.92;74.41;99921.80;100864;1316;138290;-78
2021/12/30 01:24:02;;;;;;;0.90;0.90;;;;;;;2.95;74.30;99917.24;101008;1317;107805;-78
2021/12/30 01:26:30;;;;;;;1.00;1.00;;;;;;;2.94;74.71;99917.05;101020;1315;107489;-78
2021/12/30 01:28:58;;;;;;;1.10;1.10;;;;;;;2.98;74.66;99915.47;100905;1316;140588;-78
2021/12/30 01:31:26;;;;;;;1.00;1.00;;;;;;;3.02;74.53;99917.75;101055;1316;94291;-78
2021/12/30 01:34:14;;;;;;;1.00;1.00;;;;;;;3.10;74.59;99919.45;100870;1322;139340;-77
2021/12/30 01:36:41;;;;;;;1.00;1.00;;;;;;;3.21;74.29;99926.09;100933;1316;107545;-77
2021/12/30 01:39:09;;;;;;;1.10;1.10;;;;;;;3.28;73.78;99923.25;100915;1316;140176;-77
2021/12/30 01:41:37;;;;;;;1.30;1.30;;;;;;;3.28;73.82;99925.36;101105;1316;94206;-77
2021/12/30 01:44:04;;;;;;;1.00;1.00;;;;;;;3.31;73.34;99922.36;101142;1316;108057;-78
2021/12/30 01:46:41;;;;;;;1.10;1.10;;;;;;;3.24;73.84;99925.20;101064;1315;139042;-78
2021/12/30 01:49:11;;;;;;;1.10;1.10;;;;;;;3.18;73.95;99923.98;101133;1315;94446;-78
2021/12/30 01:51:40;;;;;;;1.10;1.10;;;;;;;3.16;73.99;99919.09;101211;1315;138923;-78
2021/12/30 01:54:08;;;;;;;1.00;1.00;;;;;;;3.14;74.22;99920.67;101080;1316;109517;-78
2021/12/30 01:56:36;;;;;;;1.00;1.00;;;;;;;3.19;74.37;99922.06;100965;1315;105569;-79
2021/12/30 01:59:04;;;;;;;1.10;1.10;;;;;;;3.17;74.55;99922.23;101101;1315;139038;-79
2021/12/30 02:01:32;;;;;;;1.20;1.20;;;;;;;3.16;74.53;99922.77;101244;1316;94203;-78
2021/12/30 02:04:01;;;;;;;1.00;1.00;;;;;;;3.16;74.68;99923.30;101134;1316;139186;-78
2021/12/30 02:06:28;;;;;;;1.10;1.10;;;;;;;3.24;74.90;99924.67;101204;1315;107390;-79
2021/12/30 02:08:56;;;;;;;1.10;1.10;;;;;;;3.31;74.92;99923.41;101685;1316;94206;-80
2021/12/30 02:11:25;;;;;;;1.00;1.00;;;;;;;3.41;74.78;99920.55;101532;1315;137640;-79
2021/12/30 02:13:53;;;;;;;1.00;1.00;;;;;;;3.44;74.11;99923.17;101585;1315;109479;-79
2021/12/30 02:16:21;;;;;;;1.00;1.00;;;;;;;3.50;74.48;99922.63;101492;1316;138036;-79
2021/12/30 02:18:50;;;;;;;1.00;1.00;;;;;;;3.59;74.17;99924.52;101588;1315;94299;-79
2021/12/30 02:21:17;;;;;;;1.20;1.20;;;;;;;3.65;73.83;99923.59;101475;1315;138205;-79
2021/12/30 02:23:45;;;;;;;1.00;1.00;;;;;;;3.77;73.58;99920.55;101490;1316;109546;-78
2021/12/30 02:26:15;;;;;;;1.00;1.00;;;;;;;3.87;73.58;99924.87;101492;1315;107463;-78
2021/12/30 02:28:44;;;;;;;1.00;1.00;;;;;;;3.92;72.69;99924.66;101125;1316;139689;-78
2021/12/30 02:31:16;;;;;;;1.00;1.00;;;;;;;3.79;72.89;99920.70;101247;1315;94729;-78
2021/12/30 02:33:44;;;;;;;1.00;1.00;;;;;;;3.72;73.19;99920.92;101253;1316;138755;-78
2021/12/30 02:36:14;;;;;;;1.00;1.00;;;;;;;3.74;73.44;99923.19;101287;1316;107003;-78
2021/12/30 02:38:44;;;;;;;0.90;0.90;;;;;;;3.70;73.43;99924.44;101406;1315;94868;-79
2021/12/30 02:41:17;;;;;;;0.90;0.90;;;;;;;3.72;73.63;99922.16;101275;1315;139542;-79
2021/12/30 02:43:49;;;;;;;1.00;1.00;;;;;;;3.69;73.26;99915.31;101306;1316;108805;-79
2021/12/30 02:46:22;;;;;;;1.00;1.00;;;;;;;3.63;73.75;99919.39;101172;1313;139681;-79
2021/12/30 02:48:52;;;;;;;0.90;0.90;;;;;;;3.67;73.88;99917.96;101383;1315;94400;-79
2021/12/30 02:51:22;;;;;;;0.90;0.90;;;;;;;3.73;73.97;99920.92;101236;1316;139597;-78
2021/12/30 02:53:50;;;;;;;1.00;1.00;;;;;;;3.79;73.58;99917.73;101205;1315;109449;-78
2021/12/30 02:56:20;;;;;;;0.90;0.90;;;;;;;3.78;73.58;99915.63;101243;1316;108834;-78
2021/12/30 02:58:47;;;;;;;1.00;1.00;;;;;;;3.76;73.41;99915.80;101185;1315;140635;-78
2021/12/30 03:01:22;;;;;;;1.00;1.00;;;;;;;3.87;73.81;99916.97;101310;1313;94629;-78
2021/12/30 03:03:50;;;;;;;0.90;0.90;;;;;;;4.02;73.26;99919.14;101252;1316;139611;-78
2021/12/30 03:06:18;;;;;;;1.00;1.00;;;;;;;4.11;72.93;99918.72;101262;1316;109039;-78
2021/12/30 03:08:47;;;;;;;0.90;0.90;;;;;;;4.17;72.66;99919.55;101280;1316;94215;-78
2021/12/30 03:11:16;;;;;;;0.90;0.90;;;;;;;4.20;72.38;99916.02;101244;1315;139766;-79
2021/12/30 03:13:44;;;;;;;0.90;0.90;;;;;;;4.10;72.22;99918.03;101300;1312;109404;-79
2021/12/30 03:16:24;;;;;;;1.00;1.00;;;;;;;3.97;72.79;99917.95;101100;1316;139481;-79
2021/12/30 03:18:52;;;;;;;0.90;0.90;;;;;;;3.93;72.98;99915.16;101333;1322;94082;-79
2021/12/30 03:21:22;;;;;;;0.90;0.90;;;;;;;3.92;73.16;99913.41;101229;1314;140209;-78
2021/12/30 03:23:50;;;;;;;0.90;0.90;;;;;;;3.93;73.30;99919.90;101305;1315;110050;-78
2021/12/30 03:26:19;;;;;;;0.90;0.90;;;;;;;3.96;73.36;99923.23;101308;1315;108912;-78
2021/12/30 03:28:47;;;;;;;0.90;0.90;;;;;;;3.95;73.44;99926.05;101292;1316;139585;-78
2021/12/30 03:31:17;;;;;;;0.80;0.80;;;;;;;4.03;73.12;99928.97;101379;1315;94324;-80
2021/12/30 03:33:46;;;;;;;1.00;1.00;;;;;;;4.03;72.88;99932.84;101387;1316;139604;-79
2021/12/30 03:36:14;;;;;;;1.00;1.00;;;;;;;4.04;73.14;99935.98;101288;1315;110457;-78
2021/12/30 03:38:48;;;;;;;0.90;0.90;;;;;;;4.02;72.64;99940.22;101325;1315;94260;-78
2021/12/30 03:41:20;;;;;;;0.90;0.90;;;;;;;3.91;73.03;99941.17;101231;1315;137901;-78
2021/12/30 03:43:48;;;;;;;0.90;0.90;;;;;;;3.92;73.42;99944.85;101287;1314;109479;-78
2021/12/30 03:46:16;;;;;;;0.90;0.90;;;;;;;4.00;73.33;99943.39;101269;1316;140470;-78
2021/12/30 03:48:44;;;;;;;1.00;1.00;;;;;;;4.00;73.37;99945.33;101348;1315;94256;-79
2021/12/30 03:51:21;;;;;;;1.00;1.00;;;;;;;4.14;73.38;99949.27;101186;1316;140214;-78
2021/12/30 03:53:54;;;;;;;0.90;0.90;;;;;;;4.20;72.97;99960.83;101077;1315;109345;-78
2021/12/30 03:56:27;;;;;;;0.80;0.80;;;;;;;4.23;72.60;99969.25;100781;1312;109007;-78
2021/12/30 03:58:56;;;;;;;1.00;1.00;;;;;;;4.25;72.53;99975.02;100546;1316;141627;-78
2021/12/30 04:01:25;;;;;;;0.90;0.90;;;;;;;4.23;72.14;99982.41;100605;1316;94418;-78
2021/12/30 04:03:54;;;;;;;0.90;0.90;;;;;;;4.17;72.16;99983.15;100526;1316;139194;-78
2021/12/30 04:06:22;;;;;;;0.90;0.90;;;;;;;4.18;72.55;99990.54;100530;1316;108879;-78
2021/12/30 04:08:50;;;;;;;0.90;0.90;;;;;;;4.22;72.51;99998.94;100827;1315;94527;-78
2021/12/30 04:11:17;;;;;;;0.90;0.90;;;;;;;4.18;72.33;99998.97;100788;1320;138942;-79
2021/12/30 04:13:45;;;;;;;0.90;0.90;;;;;;;4.20;72.63;99993.15;101100;1315;108321;-78
2021/12/30 04:16:13;;;;;;;0.80;0.80;;;;;;;4.26;72.39;99999.61;101026;1315;139674;-79
2021/12/30 04:18:41;;;;;;;0.90;0.90;;;;;;;4.34;72.15;100001.14;101697;1315;94248;-79
2021/12/30 04:21:08;;;;;;;0.90;0.90;;;;;;;4.39;71.99;99997.59;101577;1316;138548;-78
2021/12/30 04:23:36;;;;;;;0.90;0.90;;;;;;;4.50;71.97;99997.33;101580;1316;107786;-78
2021/12/30 04:26:04;;;;;;;0.80;0.80;;;;;;;4.53;71.49;99995.90;101238;1315;109024;-78
2021/12/30 04:28:31;;;;;;;0.80;0.80;;;;;;;4.43;71.31;99988.94;101235;1316;139468;-78
2021/12/30 04:30:59;;;;;;;0.90;0.90;;;;;;;4.34;71.95;99993.40;101392;1315;94187;-78
2021/12/30 04:33:27;;;;;;;0.90;0.90;;;;;;;4.45;71.94;99987.36;101166;1316;139070;-78
2021/12/30 04:35:56;;;;;;;0.90;0.90;;;;;;;4.43;71.38;99985.42;101206;1312;109395;-78
2021/12/30 04:38:26;;;;;;;0.90;0.90;;;;;;;4.40;72.22;99983.70;101189;1315;94368;-78
2021/12/30 04:40:54;;;;;;;1.00;1.00;;;;;;;4.57;71.82;99981.98;101076;1316;139924;-79
2021/12/30 04:43:22;;;;;;;0.90;0.90;;;;;;;4.59;71.76;99980.91;101238;1316;109624;-78
2021/12/30 04:45:51;;;;;;;0.90;0.90;;;;;;;4.64;71.66;99980.34;101108;1316;140547;-78
2021/12/30 04:48:20;;;;;;;0.90;0.90;;;;;;;4.74;71.38;99981.81;101334;1315;94397;-78
2021/12/30 04:50:48;;;;;;;0.80;0.80;;;;;;;4.86;70.87;99984.19;101308;1315;94233;-78
2021/12/30 04:53:17;;;;;;;0.90;0.90;;;;;;;4.75;70.71;99984.46;101158;1316;139255;-78
2021/12/30 04:55:45;;;;;;;0.90;0.90;;;;;;;4.73;70.84;99980.77;101230;1316;108903;-78
2021/12/30 04:58:14;;;;;;;0.90;0.90;;;;;;;4.77;70.75;99984.79;101116;1314;139476;-79
2021/12/30 05:00:42;;;;;;;0.90;0.90;;;;;;;4.74;70.63;99980.59;101263;1315;94153;-78
2021/12/30 05:03:12;;;;;;;0.80;0.80;;;;;;;4.63;71.10;99980.34;101167;1316;139009;-78
2021/12/30 05:05:51;;;;;;;0.90;0.90;;;;;;;4.69;71.45;99985.39;101149;1315;108785;-78
2021/12/30 05:08:21;;;;;;;0.90;0.90;;;;;;;4.78;70.85;99985.13;101189;1316;94172;-78
2021/12/30 05:10:50;;;;;;;0.80;0.80;;;;;;;4.77;70.93;99980.56;101218;1316;139321;-78
2021/12/30 05:13:18;;;;;;;0.80;0.80;;;;;;;4.66;70.99;99974.52;101095;1314;109172;-79
2021/12/30 05:15:47;;;;;;;0.80;0.80;;;;;;;4.50;71.56;99972.53;101366;1315;139149;-79
2021/12/30 05:18:15;;;;;;;0.80;0.80;;;;;;;4.49;71.82;99978.88;101642;1316;94211;-79
2021/12/30 05:20:43;;;;;;;0.80;0.80;;;;;;;4.53;72.00;99988.68;101589;1316;94259;-79
2021/12/30 05:23:11;;;;;;;0.90;0.90;;;;;;;4.59;71.29;99991.27;101349;1316;139679;-79
2021/12/30 05:25:39;;;;;;;0.90;0.90;;;;;;;4.57;71.56;99998.50;101410;1315;106123;-79
2021/12/30 05:28:06;;;;;;;0.80;0.80;;;;;;;4.55;71.98;99997.81;101426;1315;139424;-79
2021/12/30 05:30:36;;;;;;;0.80;0.80;;;;;;;4.67;71.33;99985.23;101542;1315;94272;-79
2021/12/30 05:33:04;;;;;;;0.80;0.80;;;;;;;4.58;71.40;99979.69;101585;1319;109564;-79
2021/12/30 05:35:31;;;;;;;0.90;0.90;;;;;;;4.61;71.54;99980.00;101436;1316;139406;-79
2021/12/30 05:38:01;;;;;;;0.80;0.80;;;;;;;4.69;71.74;99979.06;101625;1316;94095;-79
2021/12/30 05:40:30;;;;;;;0.80;0.80;;;;;;;4.74;71.04;99976.90;101517;1315;138589;-79
2021/12/30 05:42:58;;;;;;;0.80;0.80;;;;;;;4.68;71.18;99977.31;101623;1319;108729;-79
2021/12/30 05:45:29;;;;;;;0.80;0.80;;;;;;;4.67;71.68;99988.92;101458;1319;139222;-79
2021/12/30 05:47:57;;;;;;;0.90;0.90;;;;;;;4.79;71.74;100000.59;101581;1316;94457;-78
2021/12/30 05:50:27;;;;;;;0.90;0.90;;;;;;;4.96;71.26;100009.42;101513;1315;94431;-79
2021/12/30 05:52:55;;;;;;;0.80;0.80;;;;;;;5.07;70.72;100015.11;101179;1316;138812;-78
2021/12/30 05:55:23;;;;;;;0.80;0.80;;;;;;;5.11;70.54;100024.40;101153;1316;108533;-78
2021/12/30 05:57:52;;;;;;;0.80;0.80;;;;;;;5.14;70.32;100028.41;101046;1322;140610;-78
2021/12/30 06:00:21;;;;;;;0.70;0.70;;;;;;;5.20;70.28;100033.99;101160;1316;94219;-78
2021/12/30 06:02:49;;;;;;;0.70;0.70;;;;;;;5.13;69.86;100025.08;101148;1319;109277;-78
2021/12/30 06:05:17;;;;;;;0.80;0.80;;;;;;;5.01;70.20;100023.79;101053;1316;138745;-79
2021/12/30 06:07:45;;;;;;;0.90;0.90;;;;;;;4.99;70.32;100020.46;101302;1315;94303;-79
2021/12/30 06:10:12;;;;;;;0.80;0.80;;;;;;;4.98;70.55;100018.53;101210;1315;138420;-78
2021/12/30 06:12:43;;;;;;;0.80;0.80;;;;;;;4.91;70.59;100023.52;101273;1316;109214;-79
2021/12/30 06:15:11;;;;;;;0.80;0.80;;;;;;;4.88;71.47;100030.59;101416;1315;108738;-78
2021/12/30 06:17:41;;;;;;;0.80;0.80;;;;;;;5.05;71.18;100041.70;101266;1316;138653;-79
2021/12/30 06:20:13;;;;;;;0.80;0.80;;;;;;;5.18;70.92;100042.45;101071;1315;93747;-79
2021/12/30 06:22:43;;;;;;;0.80;0.80;;;;;;;5.19;70.60;100050.17;100847;1316;139354;-78
2021/12/30 06:25:11;;;;;;;0.80;0.80;;;;;;;5.18;70.53;100048.44;101069;1316;108297;-78
2021/12/30 06:27:40;;;;;;;0.80;0.80;;;;;;;5.17;70.62;100053.91;101133;1315;138939;-78
2021/12/30 06:30:09;;;;;;;0.70;0.70;;;;;;;5.18;70.70;100057.41;101133;1315;94583;-78
2021/12/30 06:32:37;;;;;;;0.80;0.80;;;;;;;5.22;70.21;100054.39;101241;1316;109653;-78
2021/12/30 06:35:08;;;;;;;0.80;0.80;;;;;;;5.02;70.84;100048.41;101126;1315;141953;-78
2021/12/30 06:37:37;;;;;;;1.00;1.00;;;;;;;4.93;71.22;100053.77;101166;1315;94268;-79
2021/12/30 06:40:06;;;;;;;0.80;0.80;;;;;;;4.97;71.28;100060.59;101106;1315;139652;-78
2021/12/30 06:42:34;;;;;;;0.80;0.80;;;;;;;5.07;71.19;100061.56;101247;1315;108462;-78
2021/12/30 06:45:03;;;;;;;0.70;0.70;;;;;;;5.15;70.89;100057.44;101205;1315;108977;-78
2021/12/30 06:47:30;;;;;;;0.80;0.80;;;;;;;5.10;70.99;100052.56;101173;1316;139912;-78
2021/12/30 06:50:01;;;;;;;0.80;0.80;;;;;;;5.18;71.19;100055.65;101313;1316;94232;-78
2021/12/30 06:52:30;;;;;;;0.90;0.90;;;;;;;5.30;70.76;100064.86;101180;1315;141033;-78
2021/12/30 06:54:58;;;;;;;0.80;0.80;;;;;;;5.38;70.42;100069.70;101142;1315;108817;-78
2021/12/30 06:57:28;;;;;;;0.80;0.80;;;;;;;5.36;70.39;100075.71;100966;1315;139839;-78
2021/12/30 06:59:56;;;;;;;0.80;0.80;;;;;;;5.34;70.48;100070.45;101260;1315;94288;-79
2021/12/30 07:02:24;;;;;;;0.70;0.70;;;;;;;5.29;70.27;100071.73;101333;1315;109613;-79
2021/12/30 07:04:52;;;;;;;0.80;0.80;;;;;;;5.21;70.39;100073.05;101154;1315;138087;-78
2021/12/30 07:07:20;;;;;;;0.80;0.80;;;;;;;5.09;71.02;100066.30;101143;1316;94590;-79
2021/12/30 07:09:48;;;;;;;0.80;0.80;;;;;;;5.01;71.20;100067.26;100898;1316;139826;-78
2021/12/30 07:12:16;;;;;;;0.70;0.70;;;;;;;4.92;71.67;100076.13;100999;1316;109507;-78
2021/12/30 07:14:43;;;;;;;0.80;0.80;;;;;;;4.85;71.91;100079.70;100935;1315;108334;-78
2021/12/30 07:17:11;;;;;;;0.80;0.80;;;;;;;4.76;72.27;100075.20;101204;1313;139830;-78
2021/12/30 07:19:39;;;;;;;0.80;0.80;;;;;;;4.72;72.58;100078.75;101414;1318;94219;-79
2021/12/30 07:22:06;;;;;;;0.80;0.80;;;;;;;4.73;72.52;100075.58;101386;1314;139881;-78
2021/12/30 07:24:56;;;;;;;0.70;0.70;;;;;;;4.75;72.66;100080.65;101429;1315;110012;-78
2021/12/30 07:27:23;;;;;;;0.80;0.80;;;;;;;4.76;72.81;100091.20;101446;1315;140029;-78
2021/12/30 07:29:51;;;;;;;0.80;0.80;;;;;;;4.79;72.55;100096.27;101484;1315;95654;-78
2021/12/30 07:32:19;;;;;;;0.70;0.70;;;;;;;4.77;72.71;100099.11;101462;1315;108323;-79
2021/12/30 07:34:47;;;;;;;0.70;0.70;;;;;;;4.82;72.42;100097.31;101494;1313;153337;-79
2021/12/30 07:37:16;;;;;;;0.80;0.80;;;;;;;4.74;72.65;100092.64;101425;1316;93822;-79
2021/12/30 07:39:46;;;;;;;0.80;0.80;;;;;;;4.73;73.08;100094.39;101433;1316;138931;-79
2021/12/30 07:42:14;;;;;;;0.80;0.80;;;;;;;4.87;72.81;100091.99;101823;1315;109793;-79
2021/12/30 07:44:42;;;;;;;0.80;0.80;;;;;;;4.90;72.39;100088.80;101767;1316;109025;-79
2021/12/30 07:47:17;;;;;;;0.80;0.80;;;;;;;4.95;72.95;100087.17;101648;1313;141631;-79
2021/12/30 07:49:46;;;;;;;0.70;0.70;;;;;;;4.98;72.48;100088.73;101920;1316;94537;-78
2021/12/30 07:52:14;;;;;;;0.80;0.80;;;;;;;5.00;72.26;100086.95;101720;1315;139232;-78
2021/12/30 07:54:43;;;;;;;0.70;0.70;;;;;;;5.00;72.22;100086.61;101850;1315;108337;-79
2021/12/30 07:57:22;;;;;;;0.70;0.70;;;;;;;4.97;72.29;100081.18;101927;1315;94151;-78
2021/12/30 07:59:50;;;;;;;0.70;0.70;;;;;;;4.98;72.62;100078.70;101675;1316;140145;-79
2021/12/30 08:02:19;;;;;;;0.80;0.80;;;;;;;5.00;72.54;100072.18;101695;1315;108697;-79
2021/12/30 08:04:46;;;;;;;0.70;0.70;;;;;;;5.02;72.55;100076.39;101679;1315;139765;-79
2021/12/30 08:07:19;;;;;;;0.70;0.70;;;;;;;5.03;72.41;100073.03;101882;1313;94381;-79
2021/12/30 08:09:47;;;;;;;0.70;0.70;;;;;;;5.02;72.48;100072.70;101748;1312;139827;-80
2021/12/30 08:12:15;;;;;;;0.80;0.80;;;;;;;5.08;72.45;100083.37;101804;1316;108364;-79
2021/12/30 08:14:42;;;;;;;0.70;0.70;;;;;;;5.22;72.67;100087.81;101800;1316;108842;-79
2021/12/30 08:17:10;;;;;;;0.70;0.70;;;;;;;5.41;71.87;100092.40;101730;1319;140339;-79
2021/12/30 08:19:38;;;;;;;0.70;0.70;;;;;;;5.37;71.56;100091.90;101889;1319;94279;-79
2021/12/30 08:22:06;;;;;;;0.70;0.70;;;;;;;5.40;71.81;100099.10;101787;1316;139755;-79
2021/12/30 08:24:33;;;;;;;0.80;0.80;;;;;;;5.48;71.61;100109.05;101792;1315;108779;-79
2021/12/30 08:27:13;;;;;;;0.70;0.70;;;;;;;5.65;71.59;100108.16;101910;1316;94103;-79
2021/12/30 08:29:42;;;;;;;0.70;0.70;;;;;;;5.59;70.86;100102.59;101829;1311;138121;-79
2021/12/30 08:32:11;;;;;;;0.80;0.80;;;;;;;5.33;71.53;100103.21;101917;1319;109518;-79
2021/12/30 08:34:40;;;;;;;0.70;0.70;;;;;;;5.34;72.06;100108.14;101829;1315;138493;-79
2021/12/30 08:37:08;;;;;;;0.70;0.70;;;;;;;5.55;72.19;100110.73;101965;1316;94289;-79
2021/12/30 08:39:36;;;;;;;0.70;0.70;;;;;;;5.68;71.22;100108.31;101952;1313;138708;-80
2021/12/30 08:42:05;;;;;;;0.70;0.70;;;;;;;5.48;71.26;100107.98;101933;1316;108288;-80
2021/12/30 08:44:33;;;;;;;0.80;0.80;;;;;;;5.38;71.65;100104.92;101906;1316;109292;-81
2021/12/30 08:47:00;;;;;;;0.70;0.70;;;;;;;5.30;72.20;100100.08;101819;1315;139804;-81
2021/12/30 08:49:28;;;;;;;0.70;0.70;;;;;;;5.29;72.50;100099.90;101982;1316;94257;-81
2021/12/30 08:51:55;;;;;;;0.70;0.70;;;;;;;5.27;72.50;100100.98;101840;1312;139771;-83
2021/12/30 08:54:23;;;;;;;0.70;0.70;;;;;;;5.24;72.73;100104.70;101967;1316;109110;-82
2021/12/30 08:56:51;;;;;;;0.80;0.80;;;;;;;5.19;72.91;100103.69;101942;1316;94853;-80
2021/12/30 08:59:18;;;;;;;0.80;0.80;;;;;;;5.24;73.22;100106.11;101929;1313;139478;-80
2021/12/30 09:01:46;;;;;;;0.70;0.70;;;;;;;5.33;72.72;100106.90;102016;1319;109496;-80
2021/12/30 09:04:14;;;;;;;0.70;0.70;;;;;;;5.31;73.09;100110.98;102119;1315;138648;-80
2021/12/30 09:06:42;;;;;;;0.80;0.80;;;;;;;5.53;73.09;100113.05;101852;1315;94190;-80
2021/12/30 09:09:09;;;;;;;0.70;0.70;;;;;;;5.70;72.30;100117.10;102063;1315;94366;-80
2021/12/30 09:11:37;;;;;;;0.70;0.70;;;;;;;5.84;72.00;100112.52;102016;1315;137848;-80
2021/12/30 09:14:05;;;;;;;0.70;0.70;;;;;;;5.81;71.51;100107.46;102002;1314;108841;-80
2021/12/30 09:16:32;;;;;;;0.70;0.70;;;;;;;5.86;72.00;100107.41;101903;1313;141935;-80
2021/12/30 09:19:00;;;;;;;0.70;0.70;;;;;;;5.88;71.13;100097.69;101983;1310;94313;-80
2021/12/30 09:21:28;;;;;;;0.80;0.80;;;;;;;5.72;71.63;100088.89;101937;1316;138817;-78
2021/12/30 09:23:56;;;;;;;0.60;0.60;;;;;;;5.72;72.12;100078.34;101990;1315;107856;-80
2021/12/30 09:26:23;;;;;;;0.70;0.70;;;;;;;5.71;72.01;100074.46;101818;1316;94152;-80
2021/12/30 09:28:51;;;;;;;0.70;0.70;;;;;;;5.79;71.92;100065.02;101622;1315;140387;-79
2021/12/30 09:31:19;;;;;;;0.70;0.70;;;;;;;5.79;71.87;100061.84;101759;1316;109349;-80
2021/12/30 09:33:46;;;;;;;0.70;0.70;;;;;;;5.83;71.82;100068.50;101626;1319;141433;-80
2021/12/30 09:36:14;;;;;;;0.70;0.70;;;;;;;5.81;71.57;100069.39;101903;1315;94238;-80
2021/12/30 09:38:42;;;;;;;0.80;0.80;;;;;;;5.95;71.75;100066.41;102132;1311;94193;-80
2021/12/30 09:41:09;;;;;;;0.70;0.70;;;;;;;6.02;71.09;100070.77;101817;1316;139966;-80
2021/12/30 09:43:37;;;;;;;0.70;0.70;;;;;;;5.98;71.27;100066.92;101983;1313;107742;-81
2021/12/30 09:46:05;;;;;;;0.70;0.70;;;;;;;5.89;71.46;100064.03;101864;1315;139506;-80
2021/12/30 09:48:32;;;;;;;0.80;0.80;;;;;;;5.80;71.79;100062.02;101942;1316;94296;-80
2021/12/30 09:51:00;;;;;;;0.70;0.70;;;;;;;5.80;71.71;100059.90;101989;1315;109354;-80
2021/12/30 09:53:28;;;;;;;0.70;0.70;;;;;;;5.88;71.78;100055.23;101889;1316;140083;-81
2021/12/30 09:55:57;;;;;;;0.70;0.70;;;;;;;5.86;72.11;100053.30;101971;1313;94182;-80
2021/12/30 09:58:25;;;;;;;0.70;0.70;;;;;;;5.95;72.30;100058.66;101841;1313;138683;-80
2021/12/30 10:00:54;;;;;;;0.70;0.70;;;;;;;6.12;72.29;100062.88;101929;1319;108341;-81
2021/12/30 10:03:27;;;;;;;0.70;0.70;;;;;;;6.30;71.69;100063.33;101907;1316;109038;-80
2021/12/30 10:06:04;;;;;;;0.70;0.70;;;;;;;6.40;71.15;100056.14;101938;1319;139299;-80
2021/12/30 10:08:36;;;;;;;0.70;0.70;;;;;;;6.42;71.07;100054.16;102081;1313;94720;-80
2021/12/30 10:11:07;;;;;;;0.70;0.70;;;;;;;6.32;70.46;100046.73;101887;1316;139705;-79
2021/12/30 10:13:34;;;;;;;0.60;0.60;;;;;;;6.20;71.07;100050.61;101949;1315;108131;-81
2021/12/30 10:16:13;;;;;;;0.70;0.70;;;;;;;6.22;71.29;100058.67;101876;1316;139665;-80
2021/12/30 10:18:45;;;;;;;0.70;0.70;;;;;;;6.29;71.23;100049.78;101909;1316;94130;-81
2021/12/30 10:21:17;;;;;;;0.70;0.70;;;;;;;6.27;71.09;100054.73;101937;1313;108727;-80
2021/12/30 10:23:47;;;;;;;0.60;0.60;;;;;;;6.23;70.92;100052.33;101918;1315;140431;-80
2021/12/30 10:26:16;;;;;;;0.70;0.70;;;;;;;6.26;71.08;100057.91;101979;1315;94272;-80
2021/12/30 10:28:44;;;;;;;0.60;0.60;;;;;;;6.26;71.42;100050.70;101770;1313;139725;-79
2021/12/30 10:31:13;;;;;;;0.70;0.70;;;;;;;6.27;71.23;100051.04;101970;1316;108333;-80
2021/12/30 10:34:00;;;;;;;0.70;0.70;;;;;;;6.27;71.35;100045.56;101752;1320;142935;-80
2021/12/30 10:36:34;;;;;;;0.70;0.70;;;;;;;6.14;71.23;100046.45;101798;1319;94337;-80
2021/12/30 10:39:15;;;;;;;0.70;0.70;;;;;;;6.08;71.80;100041.26;101933;1315;94158;-79
2021/12/30 10:41:43;;;;;;;0.70;0.70;;;;;;;6.09;71.68;100039.31;101900;1312;138662;-79
2021/12/30 10:44:11;;;;;;;0.70;0.70;;;;;;;6.06;71.99;100040.39;101920;1319;107942;-80
2021/12/30 10:46:38;;;;;;;0.60;0.60;;;;;;;6.09;71.77;100040.89;101940;1320;138303;-80
2021/12/30 10:49:11;;;;;;;0.60;0.60;;;;;;;6.09;71.75;100038.59;101962;1313;94160;-79
2021/12/30 10:51:40;;;;;;;0.60;0.60;;;;;;;6.10;72.09;100037.18;101882;1310;139897;-79
2021/12/30 10:54:21;;;;;;;0.60;0.60;;;;;;;6.12;72.36;100029.73;101896;1321;108162;-80
2021/12/30 10:57:09;;;;;;;0.70;0.70;;;;;;;6.09;72.10;100038.41;102016;1316;94767;-81
2021/12/30 10:59:42;;;;;;;0.70;0.70;;;;;;;6.11;72.14;100042.27;101797;1320;140154;-80
2021/12/30 11:02:13;;;;;;;0.60;0.60;;;;;;;6.12;72.41;100039.42;102012;1313;110336;-80
2021/12/30 11:04:44;;;;;;;0.60;0.60;;;;;;;6.13;72.46;100041.55;101912;1315;138590;-80
2021/12/30 11:07:18;;;;;;;0.60;0.60;;;;;;;6.19;72.48;100036.88;102020;1315;94233;-80
2021/12/30 11:09:47;;;;;;;0.60;0.60;;;;;;;6.35;72.35;100042.81;102033;1317;141170;-80
2021/12/30 11:12:16;;;;;;;0.60;0.60;;;;;;;6.45;72.18;100044.77;102064;1316;108924;-80
2021/12/30 11:14:43;;;;;;;0.70;0.70;;;;;;;6.62;72.09;100048.40;101999;1320;109116;-81
2021/12/30 11:17:18;;;;;;;0.60;0.60;;;;;;;6.72;71.44;100047.36;101876;1313;140490;-80
2021/12/30 11:19:51;;;;;;;0.60;0.60;;;;;;;6.68;71.31;100037.54;101911;1317;94737;-82
2021/12/30 11:22:22;;;;;;;0.70;0.70;;;;;;;6.59;71.52;100033.64;101963;1313;137731;-81
2021/12/30 11:24:56;;;;;;;0.60;0.60;;;;;;;6.53;71.45;100025.25;102147;1316;109055;-81
2021/12/30 11:27:26;;;;;;;0.60;0.60;;;;;;;6.51;72.04;100026.16;102020;1318;94211;-82
2021/12/30 11:29:57;;;;;;;0.60;0.60;;;;;;;6.60;71.76;100023.92;101950;1318;139800;-79
2021/12/30 11:32:30;;;;;;;0.60;0.60;;;;;;;6.50;71.88;100020.00;102183;1318;107658;-80
2021/12/30 11:34:58;;;;;;;0.60;0.60;;;;;;;6.51;72.15;100021.77;102024;1319;141772;-79
2021/12/30 11:37:25;;;;;;;0.60;0.60;;;;;;;6.48;72.15;100024.45;102133;1317;94342;-79